Time;durP1;ratioP1;P1;durP2;ratioP2;P2;SDS_P1;SDS_P2;PMS_P1;PMS_P2;Temp;Humidity;BMP_temperature;BMP_pressure;BME280_temperature;BME280_humidity;BME280_pressure;Samples;Min_cycle;Max_cycle;Signal;HPM_P1;HPM_P2
2021/05/20 00:02:14;;;;;;;44.28;25.10;;;;;;;11.01;74.92;100614.72;5087912;28;20059;-64
2021/05/20 00:04:42;;;;;;;45.35;26.55;;;;;;;10.88;75.25;100614.44;5073588;28;20063;-64
2021/05/20 00:07:09;;;;;;;46.08;26.05;;;;;;;10.76;75.75;100625.31;5072174;28;20409;-64
2021/05/20 00:09:37;;;;;;;50.03;27.38;;;;;;;10.71;75.60;100619.84;5072006;28;20056;-64
2021/05/20 00:12:04;;;;;;;51.40;27.40;;;;;;;10.66;75.72;100625.50;5071819;28;20056;-64
2021/05/20 00:14:31;;;;;;;55.05;28.73;;;;;;;10.63;75.68;100629.75;5072983;28;20053;-64
2021/05/20 00:16:58;;;;;;;47.42;26.73;;;;;;;10.59;76.00;100630.69;5072671;28;20060;-64
2021/05/20 00:19:25;;;;;;;46.55;26.77;;;;;;;10.55;75.91;100636.88;5072529;28;20063;-64
2021/05/20 00:21:53;;;;;;;47.97;27.33;;;;;;;10.51;75.74;100627.47;5071930;28;20485;-64
2021/05/20 00:24:20;;;;;;;48.70;26.95;;;;;;;10.50;75.70;100641.75;5072897;28;20059;-64
2021/05/20 00:26:47;;;;;;;51.55;27.73;;;;;;;10.46;75.66;100641.53;5072431;28;20060;-64
2021/05/20 00:29:16;;;;;;;49.08;26.02;;;;;;;10.43;76.00;100647.69;5072383;28;20407;-64
2021/05/20 00:31:43;;;;;;;;;;;;;;;10.40;75.80;100647.50;5072868;28;20044;-64
2021/05/20 00:34:10;;;;;;;50.75;25.65;;;;;;;10.35;75.90;100648.41;5071931;28;19920;-64
2021/05/20 00:36:37;;;;;;;55.28;28.90;;;;;;;10.34;76.44;100646.78;5071895;28;20052;-64
2021/05/20 00:39:05;;;;;;;55.10;29.55;;;;;;;10.35;76.29;100652.06;5072951;28;20060;-64
2021/05/20 00:41:32;;;;;;;52.47;28.30;;;;;;;10.34;76.87;100646.78;5072205;28;20052;-64
2021/05/20 00:43:59;;;;;;;57.50;28.58;;;;;;;10.37;76.76;100643.38;5072479;28;20055;-64
2021/05/20 00:46:25;;;;;;;52.45;28.40;;;;;;;10.38;77.02;100639.47;5071785;28;20064;-64
2021/05/20 00:48:52;;;;;;;52.05;27.00;;;;;;;10.40;76.59;100648.34;5072006;28;20052;-64
2021/05/20 00:51:21;;;;;;;53.75;26.60;;;;;;;10.43;76.60;100644.91;5071821;28;20060;-64
2021/05/20 00:53:49;;;;;;;65.20;30.98;;;;;;;10.43;76.62;100646.88;5071364;28;20390;-64
2021/05/20 00:56:20;;;;;;;55.30;28.98;;;;;;;10.44;76.70;100642.97;5072158;28;20055;-64
2021/05/20 00:58:49;;;;;;;62.15;32.17;;;;;;;10.45;76.74;100656.56;5066135;28;20049;-64
2021/05/20 01:01:16;;;;;;;61.38;29.98;;;;;;;10.45;76.28;100650.19;5069905;28;20478;-64
2021/05/20 01:03:43;;;;;;;64.82;32.53;;;;;;;10.42;76.20;100653.59;5070973;28;20068;-64
2021/05/20 01:06:10;;;;;;;65.88;32.58;;;;;;;10.40;76.09;100647.50;5071754;28;20052;-64
2021/05/20 01:08:37;;;;;;;70.05;33.72;;;;;;;10.33;76.35;100653.47;5072247;28;20053;-64
2021/05/20 01:11:04;;;;;;;65.88;32.15;;;;;;;10.32;76.28;100661.00;5071730;28;20052;-64
2021/05/20 01:13:32;;;;;;;64.60;31.60;;;;;;;10.34;76.69;100657.91;5071806;28;20071;-64
2021/05/20 01:15:59;;;;;;;61.65;30.40;;;;;;;10.35;76.70;100657.63;5071962;28;20053;-64
2021/05/20 01:18:26;;;;;;;54.22;29.63;;;;;;;10.37;76.54;100657.28;5071576;28;20064;-64
2021/05/20 01:20:56;;;;;;;54.90;29.05;;;;;;;10.40;76.50;100656.69;5071588;28;20049;-64
2021/05/20 01:23:23;;;;;;;57.10;28.60;;;;;;;10.41;76.75;100655.53;5074778;28;20052;-64
2021/05/20 01:25:51;;;;;;;53.35;28.00;;;;;;;10.40;76.43;100655.88;5055463;28;20063;-64
2021/05/20 01:28:19;;;;;;;56.67;29.17;;;;;;;10.39;76.38;100657.81;5055397;28;20056;-64
2021/05/20 01:30:47;;;;;;;54.27;27.77;;;;;;;10.37;76.39;100660.06;5055297;28;20049;-64
2021/05/20 01:33:15;;;;;;;59.25;29.88;;;;;;;10.36;76.17;100664.00;5055309;28;20080;-64
2021/05/20 01:35:43;;;;;;;64.40;32.22;;;;;;;10.38;76.63;100658.13;5068726;28;20075;-64
2021/05/20 01:41:05;;;;;;;61.70;29.85;;;;;;;10.31;76.57;100656.59;5050810;28;20045;-64
2021/05/20 01:43:33;;;;;;;61.63;31.02;;;;;;;10.32;76.30;100657.41;5074767;28;20068;-64
2021/05/20 01:46:00;;;;;;;69.05;32.50;;;;;;;10.31;76.20;100661.31;5074854;28;20485;-64
2021/05/20 01:48:29;;;;;;;69.15;33.35;;;;;;;10.27;75.97;100655.50;5075160;28;20387;-64
2021/05/20 01:51:01;;;;;;;64.55;31.88;;;;;;;10.25;75.88;100656.97;5074940;28;20052;-64
2021/05/20 01:53:29;;;;;;;93.47;41.30;;;;;;;10.16;76.65;100656.81;5078754;28;20052;-64
2021/05/20 01:55:56;;;;;;;70.47;34.30;;;;;;;10.14;76.74;100659.94;5095053;28;20052;-64
2021/05/20 01:58:23;;;;;;;71.25;35.05;;;;;;;10.16;76.89;100666.03;5095021;28;20063;-64
2021/05/20 02:00:50;;;;;;;94.72;39.50;;;;;;;10.23;77.22;100667.56;5076383;28;20048;-64
2021/05/20 02:03:17;;;;;;;80.78;37.78;;;;;;;10.26;77.35;100666.94;5075192;28;20060;-64
2021/05/20 02:05:44;;;;;;;90.90;39.05;;;;;;;10.26;77.91;100669.72;5074908;28;20059;-64
2021/05/20 02:08:11;;;;;;;75.45;37.28;;;;;;;10.31;77.78;100666.88;5075332;28;20053;-64
2021/05/20 02:10:39;;;;;;;75.80;37.17;;;;;;;10.37;77.86;100671.22;5075139;28;20063;-64
2021/05/20 02:13:06;;;;;;;82.40;38.88;;;;;;;10.39;78.05;100671.72;5075089;28;20413;-64
2021/05/20 02:15:36;;;;;;;78.60;37.80;;;;;;;10.47;78.10;100675.75;5074914;28;20056;-64
2021/05/20 02:18:05;;;;;;;84.65;40.17;;;;;;;10.51;78.50;100671.22;5075067;28;20394;-64
2021/05/20 02:20:32;;;;;;;76.38;37.90;;;;;;;10.63;78.30;100667.94;5074440;28;20056;-64
2021/05/20 02:22:59;;;;;;;80.65;39.63;;;;;;;10.73;78.33;100667.69;5074483;28;20390;-64
2021/05/20 02:25:26;;;;;;;74.32;38.08;;;;;;;10.82;78.18;100668.63;5075227;28;20052;-64
2021/05/20 02:27:54;;;;;;;74.32;37.95;;;;;;;10.94;78.07;100677.28;5074845;28;20041;-64
2021/05/20 02:30:21;;;;;;;82.70;41.25;;;;;;;10.98;77.55;100669.13;5074050;28;20048;-64
2021/05/20 02:32:49;;;;;;;83.57;39.80;;;;;;;11.00;77.54;100666.03;5073600;28;20060;-64
2021/05/20 02:35:16;;;;;;;82.72;41.10;;;;;;;11.05;77.29;100668.72;5073379;28;20355;-64
2021/05/20 02:37:43;;;;;;;86.10;41.30;;;;;;;11.10;76.98;100665.78;5073827;28;20075;-64
2021/05/20 02:40:11;;;;;;;97.50;42.97;;;;;;;11.17;76.70;100661.44;5074483;28;20052;-64
2021/05/20 02:42:39;;;;;;;97.40;44.00;;;;;;;11.23;76.66;100667.72;5073993;28;20450;-64
2021/05/20 02:45:10;;;;;;;97.32;43.88;;;;;;;11.27;76.65;100665.94;5073779;28;20060;-64
2021/05/20 02:47:37;;;;;;;85.13;41.67;;;;;;;11.20;76.86;100673.13;5074232;28;20071;-64
2021/05/20 02:50:05;;;;;;;104.78;46.05;;;;;;;11.24;76.77;100671.34;5073897;28;20397;-64
2021/05/20 02:52:32;;;;;;;108.53;44.88;;;;;;;11.30;76.68;100673.69;5074860;28;20048;-64
2021/05/20 02:55:02;;;;;;;105.55;45.10;;;;;;;11.30;76.61;100676.50;5074639;28;20063;-64
2021/05/20 02:57:29;;;;;;;105.47;45.25;;;;;;;11.30;76.47;100676.50;5073540;28;20060;-64
2021/05/20 02:59:56;;;;;;;104.05;46.85;;;;;;;11.29;76.56;100680.41;5073887;28;20064;-64
2021/05/20 03:02:24;;;;;;;95.45;44.47;;;;;;;11.35;76.92;100684.72;5073892;28;20075;-64
2021/05/20 03:04:52;;;;;;;98.43;43.78;;;;;;;11.42;76.89;100681.50;5073488;28;20063;-64
2021/05/20 03:07:19;;;;;;;89.63;42.25;;;;;;;11.49;76.83;100676.31;5072597;28;20048;-64
2021/05/20 03:09:46;;;;;;;99.20;44.92;;;;;;;11.55;76.63;100680.66;5073042;28;20063;-64
2021/05/20 03:12:12;;;;;;;101.57;44.95;;;;;;;11.61;76.09;100688.88;5073668;28;20057;-64
2021/05/20 03:14:42;;;;;;;111.05;46.63;;;;;;;11.56;75.95;100692.63;5073184;28;20056;-64
2021/05/20 03:17:11;;;;;;;99.38;47.92;;;;;;;11.60;76.11;100696.44;5072890;28;20490;-64
2021/05/20 03:19:39;;;;;;;;;;;;;;;11.61;75.81;100697.25;5073908;28;20045;-64
2021/05/20 03:22:09;;;;;;;95.55;44.78;;;;;;;11.66;75.69;100705.50;5073151;28;20392;-64
2021/05/20 03:24:36;;;;;;;96.38;45.70;;;;;;;11.67;75.99;100702.38;5072398;28;20052;-64
2021/05/20 03:27:03;;;;;;;89.50;44.85;;;;;;;11.72;75.87;100696.69;5072784;28;20049;-64
2021/05/20 03:29:30;;;;;;;88.65;42.72;;;;;;;11.77;75.21;100690.97;5073604;28;20501;-64
2021/05/20 03:31:57;;;;;;;90.30;44.10;;;;;;;11.83;75.14;100693.66;5073073;28;20405;-64
2021/05/20 03:34:24;;;;;;;87.95;41.92;;;;;;;11.89;74.82;100703.59;5073371;28;20049;-64
2021/05/20 03:36:52;;;;;;;85.00;42.38;;;;;;;11.88;74.72;100713.06;5073414;28;20059;-64
2021/05/20 03:39:19;;;;;;;93.32;44.67;;;;;;;11.86;74.45;100712.53;5073012;28;20409;-64
2021/05/20 03:41:46;;;;;;;85.43;42.30;;;;;;;11.93;74.35;100710.19;5072693;28;20055;-63
2021/05/20 03:44:12;;;;;;;82.10;42.50;;;;;;;11.95;74.24;100713.47;5073054;28;20052;-64
2021/05/20 03:46:39;;;;;;;93.68;43.17;;;;;;;11.97;74.60;100712.00;5072937;28;20063;-66
2021/05/20 03:49:06;;;;;;;90.22;45.25;;;;;;;12.01;74.48;100711.34;5072707;28;20060;-64
2021/05/20 03:51:33;;;;;;;90.45;42.05;;;;;;;12.03;73.84;100715.47;5072617;28;20508;-64
2021/05/20 03:54:01;;;;;;;86.30;42.35;;;;;;;12.04;73.87;100716.31;5081826;28;20052;-64
2021/05/20 03:56:28;;;;;;;86.40;42.80;;;;;;;12.09;73.92;100730.13;5090545;28;20059;-64
2021/05/20 03:58:54;;;;;;;89.63;41.03;;;;;;;12.06;73.25;100719.63;5073058;28;20060;-64
2021/05/20 04:01:21;;;;;;;88.97;41.97;;;;;;;12.07;73.10;100722.06;5072793;28;20048;-64
2021/05/20 04:03:48;;;;;;;86.65;39.88;;;;;;;12.07;73.36;100726.84;5072965;28;20052;-64
2021/05/20 04:06:15;;;;;;;84.90;39.80;;;;;;;12.11;73.41;100728.66;5072568;28;20053;-64
2021/05/20 04:08:42;;;;;;;90.10;40.88;;;;;;;12.14;73.38;100730.03;5072641;28;20071;-64
2021/05/20 04:11:10;;;;;;;84.30;40.20;;;;;;;12.21;73.44;100732.34;5072827;28;20045;-64
2021/05/20 04:13:38;;;;;;;91.10;39.15;;;;;;;12.24;72.75;100737.28;5072506;28;20436;-64
2021/05/20 04:16:06;;;;;;;84.35;38.08;;;;;;;12.24;72.68;100745.66;5072562;28;20056;-64
2021/05/20 04:18:34;;;;;;;80.38;37.60;;;;;;;12.26;72.10;100746.19;5072333;28;20049;-64
2021/05/20 04:21:03;;;;;;;82.47;38.05;;;;;;;12.27;72.55;100745.88;5072403;28;20486;-64
2021/05/20 04:23:30;;;;;;;85.63;38.28;;;;;;;12.34;72.10;100737.03;5072579;28;20051;-64
2021/05/20 04:25:57;;;;;;;81.55;37.42;;;;;;;12.34;72.23;100748.22;5072153;28;20057;-64
2021/05/20 04:28:25;;;;;;;83.78;38.58;;;;;;;12.33;71.84;100752.16;5072107;28;20063;-64
2021/05/20 04:30:52;;;;;;;80.97;37.13;;;;;;;12.29;71.23;100745.56;5072690;28;20385;-64
2021/05/20 04:33:20;;;;;;;87.07;39.42;;;;;;;12.33;71.38;100755.78;5071940;28;20048;-64
2021/05/20 04:35:47;;;;;;;86.95;37.38;;;;;;;12.39;71.46;100750.88;5071999;28;20068;-64
2021/05/20 04:38:14;;;;;;;99.80;40.08;;;;;;;12.44;71.49;100750.72;5071950;28;20052;-64
2021/05/20 04:40:41;;;;;;;85.43;38.38;;;;;;;12.51;71.49;100756.66;5072368;28;20432;-64
2021/05/20 04:43:08;;;;;;;84.10;38.22;;;;;;;12.61;71.23;100749.19;5072128;28;20059;-64
2021/05/20 04:45:36;;;;;;;87.53;37.70;;;;;;;12.71;71.13;100754.50;5072119;28;20048;-64
2021/05/20 04:48:03;;;;;;;87.25;38.78;;;;;;;12.75;71.61;100753.53;5072098;28;20060;-64
2021/05/20 04:50:31;;;;;;;89.97;37.97;;;;;;;12.86;71.16;100748.47;5072158;28;20064;-64
2021/05/20 04:52:58;;;;;;;89.25;38.83;;;;;;;12.92;70.75;100749.97;5072062;28;20521;-64
2021/05/20 04:55:25;;;;;;;79.35;36.92;;;;;;;12.95;70.45;100752.09;5072181;28;20049;-64
2021/05/20 04:57:51;;;;;;;89.15;38.05;;;;;;;12.95;70.02;100740.09;5074793;28;20053;-64
2021/05/20 05:00:19;;;;;;;88.13;37.88;;;;;;;12.92;69.85;100744.38;5076476;28;20052;-64
2021/05/20 05:02:47;;;;;;;90.05;37.15;;;;;;;12.94;69.42;100750.47;5075648;28;20049;-64
2021/05/20 05:05:14;;;;;;;91.40;37.97;;;;;;;13.00;69.67;100751.97;5075547;28;20064;-64
2021/05/20 05:07:41;;;;;;;89.30;38.28;;;;;;;13.07;69.76;100747.88;5075037;28;20424;-64
2021/05/20 05:10:09;;;;;;;76.65;35.30;;;;;;;13.15;69.43;100761.06;5075913;28;20489;-64
2021/05/20 05:12:36;;;;;;;71.00;33.03;;;;;;;13.22;68.69;100757.78;5075954;28;20049;-64
2021/05/20 05:15:04;;;;;;;74.85;33.35;;;;;;;13.14;68.68;100748.22;5075900;28;20056;-64
2021/05/20 05:17:31;;;;;;;76.80;33.63;;;;;;;13.14;68.60;100743.44;5075895;28;20059;-64
2021/05/20 05:19:59;;;;;;;76.10;35.13;;;;;;;13.06;68.53;100743.41;5075221;28;20052;-64
2021/05/20 05:22:26;;;;;;;79.43;35.67;;;;;;;12.94;68.67;100750.47;5075259;28;20454;-64
2021/05/20 05:24:53;;;;;;;77.80;35.08;;;;;;;12.85;68.75;100754.38;5075580;28;20071;-64
2021/05/20 05:27:20;;;;;;;84.00;35.65;;;;;;;12.77;69.41;100767.19;5076006;28;20053;-64
2021/05/20 05:29:46;;;;;;;69.47;32.30;;;;;;;12.75;69.33;100773.09;5074908;28;20055;-64
2021/05/20 05:32:13;;;;;;;59.05;30.38;;;;;;;12.70;68.84;100766.78;5073561;28;20049;-63
2021/05/20 05:34:41;;;;;;;65.45;32.60;;;;;;;12.62;68.35;100770.38;5074440;28;20064;-63
2021/05/20 05:37:08;;;;;;;61.78;31.98;;;;;;;12.62;68.02;100770.38;5074454;28;20504;-63
2021/05/20 05:39:35;;;;;;;63.25;32.88;;;;;;;12.56;67.92;100772.50;5071856;28;20048;-63
2021/05/20 05:42:02;;;;;;;61.38;31.95;;;;;;;12.54;68.18;100772.81;5074183;28;20486;-63
2021/05/20 05:44:29;;;;;;;65.30;32.35;;;;;;;12.55;67.97;100777.25;5075879;28;20045;-63
2021/05/20 05:46:56;;;;;;;60.58;32.88;;;;;;;12.59;68.05;100775.47;5073743;28;20052;-63
2021/05/20 05:49:26;;;;;;;63.30;34.80;;;;;;;12.63;67.74;100766.44;5074801;28;20055;-63
2021/05/20 05:51:56;;;;;;;64.53;34.22;;;;;;;12.65;67.90;100769.75;5071803;28;20045;-63
2021/05/20 05:54:24;;;;;;;68.15;36.55;;;;;;;12.78;67.58;100768.81;5082033;28;20051;-63
2021/05/20 05:56:51;;;;;;;59.90;33.05;;;;;;;12.90;66.83;100765.41;5094553;28;20173;-64
2021/05/20 05:59:18;;;;;;;60.72;33.45;;;;;;;13.07;67.23;100771.06;5095166;28;20052;-64
2021/05/20 06:01:46;;;;;;;57.10;31.50;;;;;;;13.30;66.34;100777.41;5094812;28;20044;-64
2021/05/20 06:04:15;;;;;;;59.25;30.77;;;;;;;13.42;65.13;100774.00;5094876;28;20048;-64
2021/05/20 06:06:43;;;;;;;57.28;31.85;;;;;;;13.52;65.29;100770.88;5095672;28;20067;-64
2021/05/20 06:09:10;;;;;;;59.38;31.08;;;;;;;13.59;63.67;100767.59;5094110;28;20059;-64
2021/05/20 06:11:39;;;;;;;50.08;29.40;;;;;;;13.60;63.99;100766.44;5095100;28;20052;-64
2021/05/20 06:14:06;;;;;;;51.78;29.83;;;;;;;13.72;63.34;100765.78;5094390;28;20063;-64
2021/05/20 06:16:35;;;;;;;51.35;29.45;;;;;;;13.86;63.08;100768.41;5094220;28;20055;-63
2021/05/20 06:19:02;;;;;;;46.67;28.50;;;;;;;13.94;62.29;100768.44;5093933;28;20055;-64
2021/05/20 06:21:29;;;;;;;47.05;26.00;;;;;;;13.86;62.28;100768.41;5093983;28;20062;-64
2021/05/20 06:23:57;;;;;;;44.97;27.45;;;;;;;13.85;62.72;100764.81;5094944;28;20056;-64
2021/05/20 06:26:24;;;;;;;44.38;26.83;;;;;;;13.77;62.66;100772.06;5093972;28;20051;-64
2021/05/20 06:28:52;;;;;;;46.35;25.70;;;;;;;13.79;62.45;100761.34;5092657;28;20146;-63
2021/05/20 06:31:19;;;;;;;45.22;27.48;;;;;;;13.79;62.10;100771.72;5092221;28;20374;-63
2021/05/20 06:33:47;;;;;;;45.92;25.77;;;;;;;13.94;63.11;100765.63;5094164;28;20074;-63
2021/05/20 06:36:13;;;;;;;44.75;26.65;;;;;;;14.27;61.83;100767.06;5095106;28;20076;-63
2021/05/20 06:38:40;;;;;;;43.85;25.13;;;;;;;14.70;61.24;100763.34;5093895;28;20056;-63
2021/05/20 06:41:09;;;;;;;39.25;25.40;;;;;;;15.11;59.75;100757.06;5094863;28;20056;-64
2021/05/20 06:43:37;;;;;;;39.95;24.77;;;;;;;15.25;58.71;100756.84;5094270;28;20052;-64
2021/05/20 06:46:05;;;;;;;37.85;23.98;;;;;;;15.22;59.27;100763.13;5094662;28;20052;-64
2021/05/20 06:48:32;;;;;;;36.33;23.52;;;;;;;15.26;58.17;100766.91;5091359;28;20060;-62
2021/05/20 06:50:59;;;;;;;35.47;23.30;;;;;;;15.17;57.69;100764.13;5093122;28;20147;-64
2021/05/20 06:53:29;;;;;;;38.22;23.10;;;;;;;15.28;58.12;100758.97;5090277;28;20063;-64
2021/05/20 06:55:59;;;;;;;36.63;23.20;;;;;;;15.46;57.74;100753.25;5086369;28;20060;-64
2021/05/20 07:01:12;;;;;;;37.78;22.92;;;;;;;15.52;56.54;100758.31;5093836;28;20048;-64
2021/05/20 07:03:40;;;;;;;37.03;22.67;;;;;;;15.62;57.48;100757.06;5092477;28;20059;-63
2021/05/20 07:06:07;;;;;;;33.22;21.40;;;;;;;15.68;57.37;100763.31;5102995;28;20055;-63
2021/05/20 07:08:34;;;;;;;33.08;23.05;;;;;;;15.76;56.52;100759.66;5091305;28;20405;-63
2021/05/20 07:11:01;;;;;;;34.22;22.40;;;;;;;15.89;55.73;100766.97;5092538;28;20051;-64
2021/05/20 07:13:28;;;;;;;32.17;20.80;;;;;;;15.93;56.20;100756.69;5090984;28;20059;-64
2021/05/20 07:15:55;;;;;;;30.77;19.90;;;;;;;16.10;56.01;100750.09;5089323;28;20047;-64
2021/05/20 07:18:23;;;;;;;29.08;18.63;;;;;;;16.31;55.03;100758.47;5081080;28;20048;-64
2021/05/20 07:20:50;;;;;;;24.48;16.27;;;;;;;16.30;54.36;100762.47;5088416;28;20047;-64
2021/05/20 07:23:20;;;;;;;25.17;16.38;;;;;;;16.41;53.29;100771.28;5087388;28;20408;-64
2021/05/20 07:25:47;;;;;;;23.30;16.13;;;;;;;16.62;53.53;100769.22;5093063;28;20412;-64
2021/05/20 07:28:15;;;;;;;24.02;16.00;;;;;;;16.80;53.23;100760.59;5090793;28;20056;-64
2021/05/20 07:30:42;;;;;;;24.30;16.15;;;;;;;16.93;52.49;100765.09;5099849;28;20052;-64
2021/05/20 07:33:11;;;;;;;23.80;16.00;;;;;;;17.08;52.68;100757.13;5088599;28;20481;-64
2021/05/20 07:35:39;;;;;;;20.40;14.38;;;;;;;17.28;51.26;100772.25;5097894;28;20052;-64
2021/05/20 07:38:06;;;;;;;25.95;16.55;;;;;;;18.19;51.52;100767.00;5088691;28;20044;-64
2021/05/20 07:40:33;;;;;;;21.85;14.60;;;;;;;19.75;46.03;100769.78;5099428;28;20064;-64
2021/05/20 07:43:00;;;;;;;21.67;16.33;;;;;;;20.28;43.67;100761.59;5090323;28;20052;-64
2021/05/20 07:45:27;;;;;;;19.17;14.02;;;;;;;21.51;43.53;100770.28;5090951;28;20060;-64
2021/05/20 07:47:53;;;;;;;18.23;13.43;;;;;;;21.42;41.84;100773.41;5091425;28;20055;-64
2021/05/20 07:50:20;;;;;;;20.92;14.82;;;;;;;21.03;41.78;100774.34;5108260;28;20074;-65
2021/05/20 07:52:48;;;;;;;22.17;16.20;;;;;;;20.86;42.35;100780.53;5096338;28;20056;-65
2021/05/20 07:55:18;;;;;;;20.20;15.73;;;;;;;20.35;43.29;100787.22;5091203;28;20060;-64
2021/05/20 07:57:45;;;;;;;23.30;16.30;;;;;;;20.08;43.65;100780.59;5084011;28;20059;-64
2021/05/20 08:00:13;;;;;;;21.13;15.73;;;;;;;20.37;43.71;100786.81;5059790;28;20350;-65
2021/05/20 08:02:48;;;;;;;17.08;14.20;;;;;;;22.54;39.13;100781.34;5077445;28;20056;-65
2021/05/20 08:05:22;;;;;;;18.38;14.00;;;;;;;24.29;35.78;100771.28;5077207;28;20041;-65
2021/05/20 08:07:55;;;;;;;20.65;15.52;;;;;;;23.36;36.68;100782.13;5072127;28;20060;-65
2021/05/20 08:13:06;;;;;;;21.52;16.67;;;;;;;23.62;36.74;100772.56;5044977;28;20068;-65
2021/05/20 08:15:33;;;;;;;16.35;14.45;;;;;;;24.07;34.81;100775.28;5069360;28;20532;-66
2021/05/20 08:18:00;;;;;;;18.38;14.43;;;;;;;24.27;33.85;100779.44;5078091;28;20412;-65
2021/05/20 08:20:27;;;;;;;16.70;13.45;;;;;;;23.22;35.41;100776.34;5089078;28;20050;-65
2021/05/20 08:22:55;;;;;;;17.92;14.60;;;;;;;24.38;34.42;100776.63;5091966;28;20074;-65
2021/05/20 08:25:22;;;;;;;19.02;14.23;;;;;;;26.32;32.40;100773.66;5071609;28;20064;-66
2021/05/20 08:27:49;;;;;;;15.68;13.48;;;;;;;26.03;30.93;100775.81;5075781;28;20070;-65
2021/05/20 08:30:18;;;;;;;15.25;13.35;;;;;;;27.69;27.37;100767.72;5088141;28;20062;-66
2021/05/20 08:32:46;;;;;;;17.25;14.38;;;;;;;28.69;27.25;100754.22;5079835;28;20048;-66
2021/05/20 08:35:14;;;;;;;15.85;14.18;;;;;;;29.18;25.26;100748.94;5089614;28;20072;-66
2021/05/20 08:37:42;;;;;;;15.10;13.38;;;;;;;30.19;24.89;100756.44;5085265;28;20048;-66
2021/05/20 08:40:12;;;;;;;17.63;14.10;;;;;;;28.50;26.54;100752.88;5066227;28;20049;-66
2021/05/20 08:42:40;;;;;;;18.10;14.80;;;;;;;26.95;27.73;100759.41;5052970;28;20053;-66
2021/05/20 08:45:14;;;;;;;15.80;13.82;;;;;;;26.80;28.19;100760.75;5073733;28;20572;-66
2021/05/20 08:47:41;;;;;;;14.52;12.80;;;;;;;28.73;25.79;100758.66;5073859;28;20052;-64
2021/05/20 08:50:09;;;;;;;18.85;12.25;;;;;;;29.76;23.10;100757.34;5070877;28;20110;-65
2021/05/20 08:52:38;;;;;;;16.98;12.18;;;;;;;29.93;22.75;100763.97;5070292;28;20051;-65
2021/05/20 08:55:07;;;;;;;14.68;11.57;;;;;;;28.76;24.36;100748.38;5077226;28;20057;-65
2021/05/20 08:57:34;;;;;;;16.27;13.13;;;;;;;27.64;25.52;100759.63;5071362;28;20061;-65
2021/05/20 09:00:03;;;;;;;16.70;13.55;;;;;;;28.63;24.75;100744.50;5068395;28;20044;-65
2021/05/20 09:02:31;;;;;;;18.38;14.30;;;;;;;28.74;25.50;100743.06;5073303;28;20055;-65
2021/05/20 09:05:03;;;;;;;15.50;12.48;;;;;;;30.45;24.14;100748.09;5074263;28;20139;-65
2021/05/20 09:07:33;;;;;;;12.82;11.07;;;;;;;30.99;22.09;100747.66;5069272;28;20071;-66
2021/05/20 09:10:16;;;;;;;14.32;10.60;;;;;;;32.31;19.95;100734.53;5069534;28;20478;-66
2021/05/20 09:12:45;;;;;;;14.45;12.43;;;;;;;31.65;20.43;100736.09;5071325;28;20056;-67
2021/05/20 09:15:16;;;;;;;;;;;;;;;30.11;22.96;100744.31;5066382;28;20044;-66
2021/05/20 09:17:44;;;;;;;14.43;12.30;;;;;;;29.53;23.27;100747.47;5070104;28;19932;-66
2021/05/20 09:20:12;;;;;;;14.30;12.80;;;;;;;31.25;21.60;100733.44;5071222;28;20489;-66
2021/05/20 09:22:40;;;;;;;12.93;11.60;;;;;;;33.21;19.02;100733.75;5071284;28;20055;-67
2021/05/20 09:25:11;;;;;;;9.90;8.25;;;;;;;33.44;18.19;100726.75;5068829;28;20178;-66
2021/05/20 09:27:41;;;;;;;11.07;9.88;;;;;;;34.54;17.75;100732.53;5068519;28;20052;-66
2021/05/20 09:30:18;;;;;;;12.45;11.25;;;;;;;34.37;17.63;100729.88;5074490;28;20056;-66
2021/05/20 09:32:48;;;;;;;11.95;10.73;;;;;;;35.72;17.11;100735.41;5069841;28;20060;-66
2021/05/20 09:35:17;;;;;;;10.48;9.48;;;;;;;34.61;17.15;100738.03;5084201;28;20130;-66
2021/05/20 09:37:53;;;;;;;11.80;10.80;;;;;;;35.70;16.25;100749.56;5071215;28;20060;-65
2021/05/20 09:40:21;;;;;;;11.10;10.20;;;;;;;36.58;16.17;100734.25;5069969;28;20044;-65
2021/05/20 09:42:48;;;;;;;;;;;;;;;37.63;14.91;100732.72;5073107;28;20056;-65
2021/05/20 09:45:19;;;;;;;11.60;10.50;;;;;;;38.94;13.49;100737.44;5075894;28;19920;-64
2021/05/20 09:47:47;;;;;;;10.18;9.13;;;;;;;38.94;13.56;100725.78;5076783;28;20059;-65
2021/05/20 09:50:16;;;;;;;9.27;8.48;;;;;;;36.87;15.26;100733.66;5078918;28;20055;-65
2021/05/20 09:52:43;;;;;;;10.43;9.52;;;;;;;37.85;14.70;100724.44;5075367;28;20377;-64
2021/05/20 09:55:25;;;;;;;8.02;7.32;;;;;;;36.80;14.44;100727.44;5089979;28;20059;-64
2021/05/20 09:57:54;;;;;;;8.15;7.40;;;;;;;35.97;15.28;100726.38;5092190;28;20052;-65
2021/05/20 10:00:23;;;;;;;8.82;7.00;;;;;;;34.00;17.04;100725.94;5076352;28;20496;-65
2021/05/20 10:03:00;;;;;;;9.52;8.60;;;;;;;32.21;19.15;100732.00;5084615;28;20063;-65
2021/05/20 10:05:30;;;;;;;8.90;8.00;;;;;;;31.00;20.29;100732.03;5093115;28;20516;-64
2021/05/20 10:07:58;;;;;;;8.70;7.80;;;;;;;30.84;20.32;100729.09;5092501;28;20063;-64
2021/05/20 10:10:26;;;;;;;9.05;8.25;;;;;;;30.09;21.20;100731.63;5092648;28;20499;-64
2021/05/20 10:12:53;;;;;;;10.00;8.57;;;;;;;31.09;19.77;100731.38;5090256;28;20056;-64
2021/05/20 10:15:25;;;;;;;9.52;8.52;;;;;;;30.25;20.92;100737.41;5089059;28;20056;-64
2021/05/20 10:17:52;;;;;;;9.55;8.65;;;;;;;31.41;20.54;100719.00;5082688;28;20063;-64
2021/05/20 10:20:21;;;;;;;10.20;9.30;;;;;;;33.95;17.33;100715.78;5090371;28;20436;-64
2021/05/20 10:22:49;;;;;;;9.60;8.80;;;;;;;35.60;16.43;100716.88;5091526;28;20074;-64
2021/05/20 10:25:18;;;;;;;9.60;8.75;;;;;;;37.36;15.27;100712.09;5091033;28;20457;-64
2021/05/20 10:27:46;;;;;;;9.77;8.85;;;;;;;39.08;13.04;100712.47;5091530;28;20048;-64
2021/05/20 10:30:14;;;;;;;9.60;8.60;;;;;;;39.20;12.55;100717.16;5092143;28;20055;-64
2021/05/20 10:32:43;;;;;;;10.18;9.27;;;;;;;40.55;10.76;100703.22;5091922;28;20390;-65
2021/05/20 10:35:12;;;;;;;9.23;8.32;;;;;;;41.72;11.55;100702.25;5086609;28;20067;-65
2021/05/20 10:37:40;;;;;;;10.82;9.82;;;;;;;42.62;10.26;100694.91;5088234;28;20511;-65
2021/05/20 10:40:26;;;;;;;10.63;9.70;;;;;;;43.13;9.16;100701.44;5089933;28;20055;-65
2021/05/20 10:43:03;;;;;;;10.73;9.70;;;;;;;43.27;8.83;100693.69;5086100;28;20052;-66
2021/05/20 10:45:30;;;;;;;10.68;9.77;;;;;;;42.72;9.45;100690.34;5091037;28;20055;-65
2021/05/20 10:48:22;;;;;;;11.15;10.05;;;;;;;42.95;9.13;100688.19;5085514;28;20051;-65
2021/05/20 10:51:16;;;;;;;10.73;9.82;;;;;;;43.34;9.27;100679.25;5091834;28;20538;-65
2021/05/20 10:53:51;;;;;;;9.65;8.77;;;;;;;43.11;9.53;100686.53;5084376;28;20087;-65
2021/05/20 10:56:54;;;;;;;8.48;7.68;;;;;;;43.81;9.17;100699.00;5070037;28;20055;-65
2021/05/20 10:59:54;;;;;;;8.52;7.78;;;;;;;43.00;9.11;100696.16;5056438;28;20053;-65
2021/05/20 11:02:51;;;;;;;9.80;8.90;;;;;;;43.46;9.25;100682.13;5071788;28;20079;-65
2021/05/20 11:05:52;;;;;;;9.07;8.27;;;;;;;41.90;10.32;100680.50;5068753;28;20052;-65
2021/05/20 11:08:59;;;;;;;9.10;8.25;;;;;;;43.13;8.72;100672.13;5058882;28;20052;-65
2021/05/20 11:11:48;;;;;;;9.18;8.38;;;;;;;43.53;8.98;100676.47;5069648;28;20056;-65
2021/05/20 11:14:38;;;;;;;9.75;8.85;;;;;;;44.25;9.11;100669.84;5067122;28;20044;-65
2021/05/20 11:17:44;;;;;;;7.20;6.60;;;;;;;43.85;8.55;100673.09;5069284;28;20067;-66
2021/05/20 11:20:42;;;;;;;7.22;6.60;;;;;;;43.97;7.98;100676.72;5060798;28;20413;-65
2021/05/20 11:23:26;;;;;;;9.73;8.80;;;;;;;43.14;9.10;100662.78;5071227;28;20055;-65
2021/05/20 11:26:08;;;;;;;9.02;8.15;;;;;;;42.02;9.48;100654.19;5067299;28;20060;-65
2021/05/20 11:28:41;;;;;;;8.32;7.53;;;;;;;41.29;9.56;100657.75;5068708;28;20052;-65
2021/05/20 11:31:08;;;;;;;9.48;8.68;;;;;;;39.15;10.87;100650.88;5069429;28;20071;-65